Time;durP1;ratioP1;P1;durP2;ratioP2;P2;SDS_P1;SDS_P2;PMS_P1;PMS_P2;Temp;Humidity;BMP_temperature;BMP_pressure;BME280_temperature;BME280_humidity;BME280_pressure;Samples;Min_cycle;Max_cycle;Signal;HPM_P1;HPM_P2
2022/08/13 00:01:43;;;;;;;;;9.00;9.00;;;;;18.80;62.25;99408.25;6319008;20;2742149;-49
2022/08/13 00:04:17;;;;;;;;;10.33;10.33;;;;;18.68;62.52;99406.75;6316649;20;2792009;-53
2022/08/13 00:07:07;;;;;;;;;10.00;10.00;;;;;18.97;62.06;99410.13;6321322;20;2792043;-49
2022/08/13 00:09:42;;;;;;;;;10.40;10.40;;;;;18.70;63.32;99402.03;6315040;20;2792989;-54
2022/08/13 00:15:36;;;;;;;;;11.67;11.67;;;;;18.65;62.93;99399.75;6287088;20;2788950;-54
2022/08/13 00:18:17;;;;;;;;;13.00;12.00;;;;;18.21;64.24;99396.84;6318951;20;2792979;-53
2022/08/13 00:20:59;;;;;;;;;11.50;9.50;;;;;18.19;64.34;99394.28;6323691;20;2786305;-50
2022/08/13 00:23:29;;;;;;;;;10.40;8.60;;;;;18.03;64.81;99388.63;6314578;20;2772305;-53
2022/08/13 00:26:18;;;;;;;;;10.00;10.00;;;;;17.89;65.63;99392.69;6283449;20;3513465;-52
2022/08/13 00:29:03;;;;;;;;;9.33;9.33;;;;;18.05;65.34;99396.63;6317121;20;2752336;-52
2022/08/13 00:31:37;;;;;;;;;9.67;9.33;;;;;18.23;65.85;99394.84;6316714;20;2772220;-53
2022/08/13 00:34:06;;;;;;;;;10.67;10.67;;;;;18.18;65.55;99392.56;6315369;20;2793130;-53
2022/08/13 00:36:35;;;;;;;;;11.00;10.50;;;;;18.56;64.78;99390.66;6318464;20;2788806;-54
2022/08/13 00:39:10;;;;;;;;;12.50;11.00;;;;;18.31;65.64;99391.38;6291979;20;2790907;-50
2022/08/13 00:41:45;;;;;;;;;10.33;10.33;;;;;18.02;66.74;99386.94;6287352;20;3513887;-50
2022/08/13 00:44:31;;;;;;;;;9.40;9.40;;;;;17.68;67.54;99392.88;6343196;20;2770227;-50
2022/08/13 00:49:50;;;;;;;;;10.00;10.00;;;;;17.81;67.91;99384.44;6316371;20;2786797;-53
2022/08/13 00:52:39;;;;;;;;;12.00;11.00;;;;;17.98;67.68;99377.34;6313544;20;3506684;-52
2022/08/13 00:55:16;;;;;;;;;10.67;10.67;;;;;17.99;67.62;99377.22;6317857;20;3510674;-52
2022/08/13 00:57:52;;;;;;;;;11.67;10.00;;;;;17.80;68.69;99376.41;6313059;20;3513757;-53
2022/08/13 01:00:26;;;;;;;;;13.00;13.00;;;;;17.70;69.07;99379.16;6322845;20;2798279;-52
2022/08/13 01:02:57;;;;;;;;;9.33;9.33;;;;;17.77;69.03;99373.00;6287422;20;3472096;-53
2022/08/13 01:05:36;;;;;;;;;16.00;12.00;;;;;17.71;69.38;99372.72;6314503;20;3510806;-52
2022/08/13 01:08:11;;;;;;;;;11.00;11.00;;;;;17.45;69.78;99367.06;6314958;20;3520258;-52
2022/08/13 01:10:49;;;;;;;;;12.00;12.00;;;;;17.52;70.12;99362.78;6321308;20;2795119;-50
2022/08/13 01:13:26;;;;;;;;;14.00;13.00;;;;;17.57;69.90;99363.19;6287853;20;2806572;-53
2022/08/13 01:16:06;;;;;;;;;13.00;13.00;;;;;17.40;70.16;99367.50;6284870;20;3521090;-52
2022/08/13 01:18:36;;;;;;;;;14.00;11.50;;;;;17.27;71.04;99359.69;6290080;20;2791910;-52
2022/08/13 01:21:16;;;;;;;;;15.00;12.50;;;;;17.47;71.24;99362.34;6291534;20;2791954;-52
2022/08/13 01:23:49;;;;;;;;;15.00;12.00;;;;;17.93;69.88;99363.34;6288183;20;2795041;-55
2022/08/13 01:26:32;;;;;;;;;13.33;10.33;;;;;17.71;70.18;99357.25;6283890;20;3522138;-54
2022/08/13 01:29:05;;;;;;;;;14.67;12.67;;;;;17.64;71.41;99361.59;6313511;20;3524179;-55
2022/08/13 01:31:41;;;;;;;;;12.00;12.00;;;;;17.84;70.31;99361.56;6318181;20;2789987;-58
2022/08/13 01:34:15;;;;;;;;;18.00;15.00;;;;;17.78;71.19;99369.25;6286234;20;2811733;-54
2022/08/13 01:36:54;;;;;;;;;16.50;15.00;;;;;17.30;72.38;99370.25;6285496;20;2491898;-55
2022/08/13 01:39:29;;;;;;;;;13.00;13.00;;;;;17.06;73.86;99364.41;6286482;20;3523278;-55
2022/08/13 01:42:22;;;;;;;;;14.00;12.00;;;;;16.91;73.83;99369.41;6317137;20;2805562;-54
2022/08/13 01:45:04;;;;;;;;;14.50;13.00;;;;;16.95;74.64;99359.13;6282811;20;2487762;-53
2022/08/13 01:50:36;;;;;;;;;20.33;14.33;;;;;16.84;75.13;99363.69;6282253;20;3536678;-55
2022/08/13 01:53:13;;;;;;;;;14.50;14.00;;;;;16.71;75.11;99365.78;6314293;20;2811137;-53
2022/08/13 01:55:55;;;;;;;;;16.33;13.00;;;;;16.87;74.65;99360.69;6287300;20;2799513;-58
2022/08/13 01:58:47;;;;;;;;;14.33;14.33;;;;;17.00;74.63;99354.13;6314908;20;3525401;-58
2022/08/13 02:01:36;;;;;;;;;13.00;12.33;;;;;16.84;75.19;99355.56;6282194;20;3528338;-58
2022/08/13 02:04:14;;;;;;;;;13.33;13.33;;;;;16.74;74.89;99351.94;6315205;20;3533633;-58
2022/08/13 02:06:50;;;;;;;;;15.67;14.67;;;;;17.09;74.01;99356.84;6314306;20;3535937;-57
2022/08/13 02:09:23;;;;;;;;;12.00;12.00;;;;;17.27;73.22;99353.38;6283727;20;3527425;-57
2022/08/13 02:12:15;;;;;;;;;14.33;14.33;;;;;16.95;74.58;99348.28;6282899;20;3538782;-57
2022/08/13 02:15:06;;;;;;;;;15.33;15.33;;;;;16.94;75.95;99352.84;6280310;20;2500262;-57
2022/08/13 02:17:40;;;;;;;;;15.00;13.33;;;;;17.17;73.77;99355.25;6313341;20;3525353;-58
2022/08/13 02:20:32;;;;;;;;;14.00;14.00;;;;;17.01;74.73;99354.00;6319746;20;2806570;-57
2022/08/13 02:23:06;;;;;;;;;12.00;12.00;;;;;16.84;75.20;99352.84;6284226;20;3523280;-57
2022/08/13 02:25:36;;;;;;;;;17.00;17.00;;;;;16.64;76.09;99351.09;6281076;20;2826568;-58
2022/08/13 02:28:05;;;;;;;;;14.50;14.50;;;;;16.51;76.85;99345.09;6283656;20;2788924;-58
2022/08/13 02:30:55;;;;;;;;;14.67;13.67;;;;;16.44;77.12;99356.50;6284091;20;3533609;-58
2022/08/13 02:33:25;;;;;;;;;14.00;13.00;;;;;16.18;77.62;99349.88;6286806;20;2801283;-58
2022/08/13 02:35:57;;;;;;;;;14.00;14.00;;;;;16.66;77.00;99339.09;6282824;20;3526241;-57
2022/08/13 02:38:26;;;;;;;;;13.00;11.00;;;;;16.59;77.12;99342.56;6280969;20;3538870;-58
2022/08/13 02:43:51;;;;;;;;;16.50;14.50;;;;;16.51;77.49;99345.97;6313005;20;2487780;-57
2022/08/13 02:46:26;;;;;;;;;17.00;17.00;;;;;16.31;78.85;99344.22;6280605;20;2836726;-57
2022/08/13 02:49:02;;;;;;;;;17.00;16.50;;;;;16.34;78.60;99344.78;6282370;20;2483596;-57
2022/08/13 02:51:44;;;;;;;;;18.00;18.00;;;;;16.22;78.88;99340.50;6279210;20;2491920;-54
2022/08/13 02:54:35;;;;;;;;;23.00;15.33;;;;;16.28;79.05;99333.66;6280684;20;3571605;-54
2022/08/13 02:57:17;;;;;;;;;18.00;16.67;;;;;16.23;79.96;99325.94;6278188;20;3558576;-53
2022/08/13 02:59:45;;;;;;;;;15.50;15.00;;;;;15.92;80.35;99320.56;6283701;20;2494132;-54
2022/08/13 03:02:40;;;;;;;;;15.00;15.00;;;;;16.07;79.45;99322.91;6282616;20;2496100;-54
2022/08/13 03:05:17;;;;;;;;;14.50;13.00;;;;;16.19;78.27;99324.50;6284306;20;2492003;-57
2022/08/13 03:07:48;;;;;;;;;15.33;14.67;;;;;15.98;77.97;99327.28;6279201;20;3546221;-57
2022/08/13 03:10:25;;;;;;;;;17.00;14.00;;;;;15.87;78.56;99324.69;6278471;20;2810893;-58
2022/08/13 03:13:32;;;;;;;;;11.00;11.00;;;;;15.91;78.72;99316.16;6279922;20;3520030;-58
2022/08/13 03:16:18;;;;;;;;;14.67;13.67;;;;;15.73;78.67;99310.53;6308869;20;3529418;-57
2022/08/13 03:18:48;;;;;;;;;14.00;14.00;;;;;15.88;78.81;99313.75;6316440;20;3541917;-57
2022/08/13 03:21:39;;;;;;;;;16.50;15.50;;;;;15.74;79.59;99312.25;6276954;20;2483585;-58
2022/08/13 03:24:21;;;;;;;;;15.00;15.00;;;;;16.22;79.10;99324.25;6283711;20;2496105;-57
2022/08/13 03:27:01;;;;;;;;;18.00;15.67;;;;;15.59;80.46;99319.88;6277736;20;3554538;-58
2022/08/13 03:29:30;;;;;;;;;17.00;16.00;;;;;15.67;78.99;99321.91;6281555;20;2492392;-58
2022/08/13 03:32:18;;;;;;;;;19.00;16.00;;;;;15.43;80.10;99316.78;6280509;20;2485910;-58
2022/08/13 03:35:00;;;;;;;;;16.00;13.00;;;;;15.34;80.78;99306.78;6280985;20;2492053;-56
2022/08/13 03:37:39;;;;;;;;;13.00;13.00;;;;;15.35;80.68;99314.75;6282115;20;2803376;-58
2022/08/13 03:40:11;;;;;;;;;15.00;15.00;;;;;15.12;81.27;99319.47;6287765;20;2693009;-57
2022/08/13 03:42:48;;;;;;;;;17.67;16.00;;;;;15.77;78.90;99316.53;6280272;20;3556881;-57
2022/08/13 03:45:24;;;;;;;;;13.83;13.83;;;;;15.51;78.46;99308.84;6306730;20;2807651;-61
2022/08/13 03:47:55;;;;;;;;;17.00;15.00;;;;;15.43;79.67;99305.97;6311521;20;2491940;-61
2022/08/13 03:50:24;;;;;;;;;17.00;15.33;;;;;15.45;80.12;99303.97;6285641;20;2816068;-61
2022/08/13 03:52:52;;;;;;;;;20.00;17.00;;;;;15.54;79.94;99296.91;6309748;20;2485683;-58
2022/08/13 03:55:23;;;;;;;;;19.33;15.00;;;;;15.70;79.17;99301.84;6282469;20;3551409;-62
2022/08/13 03:57:55;;;;;;;;;15.00;15.00;;;;;15.83;78.35;99307.88;6284035;20;2804438;-60
2022/08/13 04:00:49;;;;;;;;;25.00;16.33;;;;;15.85;78.48;99307.72;6282926;20;2854510;-57
2022/08/13 04:03:36;;;;;;;;;17.00;14.50;;;;;15.61;78.72;99299.91;6313096;20;2487747;-58
2022/08/13 04:06:16;;;;;;;;;17.00;14.00;;;;;15.56;79.66;99295.78;6284347;20;2811726;-58
2022/08/13 04:08:48;;;;;;;;;18.00;15.50;;;;;15.47;80.56;99295.72;6282286;20;2813837;-58
2022/08/13 04:11:25;;;;;;;;;19.50;18.50;;;;;16.18;79.20;99291.13;6279783;20;2500361;-58
2022/08/13 04:13:58;;;;;;;;;21.00;17.00;;;;;15.84;80.13;99292.50;6277477;20;2839825;-58
2022/08/13 04:16:45;;;;;;;;;20.00;17.00;;;;;16.02;80.77;99291.69;6318777;20;3575225;-57
2022/08/13 04:19:14;;;;;;;;;17.50;16.00;;;;;16.38;79.35;99292.03;6284377;20;2827339;-54
2022/08/13 04:21:47;;;;;;;;;18.33;17.67;;;;;15.84;80.51;99289.78;6284289;20;2828396;-57
2022/08/13 04:24:18;;;;;;;;;23.67;22.33;;;;;15.75;82.55;99288.75;6322805;20;3572117;-59
2022/08/13 04:26:49;;;;;;;;;20.50;18.50;;;;;15.76;83.22;99290.47;6283731;20;2830570;-58
2022/08/13 04:29:18;;;;;;;;;23.00;20.00;;;;;16.59;81.37;99291.06;6289001;20;2831495;-61
2022/08/13 04:31:50;;;;;;;;;22.50;22.50;;;;;16.42;81.97;99293.44;6286788;20;2828487;-61
2022/08/13 04:34:28;;;;;;;;;22.50;22.50;;;;;16.72;81.97;99290.75;6286252;20;2846085;-61
2022/08/13 04:37:11;;;;;;;;;21.00;21.00;;;;;17.32;80.16;99291.38;6282941;20;2837832;-61
2022/08/13 04:39:52;;;;;;;;;25.67;21.33;;;;;17.68;79.00;99305.13;6288804;20;3583595;-61
2022/08/13 04:42:53;;;;;;;;;22.67;21.00;;;;;17.67;80.07;99306.16;6286467;20;2844207;-62
2022/08/13 04:45:28;;;;;;;;;20.00;18.00;;;;;18.10;78.38;99305.53;6313846;20;3567973;-61
2022/08/13 04:48:09;;;;;;;;;21.00;21.00;;;;;18.08;77.42;99304.81;6282775;20;2827314;-62
2022/08/13 04:50:40;;;;;;;;;17.00;17.00;;;;;18.08;76.91;99310.25;6284773;20;2835786;-61
2022/08/13 04:53:40;;;;;;;;;22.00;19.00;;;;;18.31;76.33;99309.84;6286951;20;2830511;-62
2022/08/13 04:56:18;;;;;;;;;20.00;19.00;;;;;18.10;78.09;99305.53;6286842;20;3573148;-62
2022/08/13 04:58:47;;;;;;;;;22.50;20.00;;;;;18.51;76.77;99297.81;6280137;20;2835674;-62
2022/08/13 05:01:17;;;;;;;;;24.00;22.00;;;;;18.57;77.24;99309.94;6286248;20;2838883;-62
2022/08/13 05:04:06;;;;;;;;;25.33;21.00;;;;;18.51;78.14;99305.09;6321892;20;3586686;-62
2022/08/13 05:06:52;;;;;;;;;23.00;21.33;;;;;18.65;77.11;99301.84;6283188;20;3581574;-62
2022/08/13 05:09:21;;;;;;;;;21.50;20.50;;;;;19.02;75.92;99296.25;6313747;20;2831660;-62
2022/08/13 05:11:59;;;;;;;;;21.00;21.00;;;;;19.16;75.53;99299.41;6285436;20;2830620;-62
2022/08/13 05:14:35;;;;;;;;;25.00;23.00;;;;;19.46;73.95;99307.09;6281133;20;2838963;-62
2022/08/13 05:17:07;;;;;;;;;26.67;23.33;;;;;19.21;75.17;99299.78;6282425;20;2844084;-62
2022/08/13 05:19:45;;;;;;;;;24.00;21.33;;;;;19.61;74.63;99306.50;6317135;20;2840999;-62
2022/08/13 05:22:23;;;;;;;;;23.00;20.33;;;;;20.64;70.73;99304.53;6318522;20;3594026;-62
2022/08/13 05:24:57;;;;;;;;;23.33;22.67;;;;;20.02;72.00;99301.28;6285352;20;3579486;-62
2022/08/13 05:27:46;;;;;;;;;23.00;21.50;;;;;21.05;69.67;99304.56;6282688;20;2844026;-62
2022/08/13 05:30:15;;;;;;;;;22.67;22.67;;;;;21.94;65.47;99307.31;6286245;20;3587714;-62
2022/08/13 05:33:00;;;;;;;;;22.33;20.33;;;;;21.47;67.02;99314.44;6283389;20;2846235;-61
2022/08/13 05:35:48;;;;;;;;;20.67;19.33;;;;;21.16;68.29;99308.81;6317365;20;3573158;-62
2022/08/13 05:38:39;;;;;;;;;24.67;21.00;;;;;21.13;68.53;99312.75;6288364;20;3580451;-62
2022/08/13 05:41:12;;;;;;;;;25.00;21.33;;;;;21.07;68.77;99316.16;6285992;20;3583639;-61
2022/08/13 05:43:43;;;;;;;;;23.00;23.00;;;;;22.93;63.12;99319.41;6287524;20;3581583;-61
2022/08/13 05:46:20;;;;;;;;;23.67;21.00;;;;;21.19;67.03;99312.03;6284086;20;3589843;-62
2022/08/13 05:48:57;;;;;;;;;17.67;16.33;;;;;20.60;71.44;99309.47;6322351;20;3570029;-60
2022/08/13 05:51:31;;;;;;;;;22.33;22.00;;;;;21.31;69.57;99309.81;6285212;20;3574315;-61
2022/08/13 05:54:20;;;;;;;;;23.67;21.67;;;;;22.33;64.39;99310.06;6291012;20;3580425;-60
2022/08/13 05:57:09;;;;;;;;;22.00;22.00;;;;;21.24;68.56;99304.19;6285517;20;3572091;-61
2022/08/13 06:05:17;;;;;;;;;20.00;19.33;;;;;21.51;68.37;99296.66;6283827;20;2831531;-60
2022/08/13 06:08:07;;;;;;;;;20.67;19.33;;;;;22.10;65.49;99304.50;6316499;20;3577316;-62
2022/08/13 06:11:04;;;;;;;;;17.67;14.67;;;;;21.68;67.74;99300.22;6284071;20;2479474;-60
2022/08/13 06:13:40;;;;;;;;;17.00;17.00;;;;;22.11;66.08;99309.78;6318526;20;3571051;-60
2022/08/13 06:16:17;;;;;;;;;18.67;17.67;;;;;22.18;65.89;99306.34;6285526;20;3560658;-60
2022/08/13 06:19:08;;;;;;;;;19.33;19.00;;;;;23.09;62.32;99305.63;6284060;20;3569079;-61
2022/08/13 06:21:39;;;;;;;;;13.00;12.67;;;;;22.60;63.27;99299.66;6280390;20;3519014;-61
2022/08/13 06:24:32;;;;;;;;;21.33;18.67;;;;;22.35;63.98;99303.38;6317005;20;3566898;-61
2022/08/13 06:27:05;;;;;;;;;18.00;18.00;;;;;22.85;63.08;99309.34;6281837;20;2835821;-61
2022/08/13 06:29:45;;;;;;;;;19.67;18.00;;;;;22.67;63.15;99306.06;6287621;20;3568098;-61
2022/08/13 06:32:21;;;;;;;;;16.00;16.00;;;;;23.19;62.23;99313.56;6284820;20;3567934;-61
2022/08/13 06:35:10;;;;;;;;;12.00;12.00;;;;;23.09;62.06;99302.00;6282968;20;2796110;-61
2022/08/13 06:37:41;;;;;;;;;16.00;16.00;;;;;22.98;61.95;99309.63;6279410;20;2831487;-61
2022/08/13 06:40:24;;;;;;;;;17.67;17.67;;;;;23.07;61.64;99306.84;6284540;20;3573225;-62
2022/08/13 06:43:05;;;;;;;;;17.00;17.00;;;;;23.65;60.43;99299.75;6283771;20;2835725;-61
2022/08/13 06:45:36;;;;;;;;;20.00;18.50;;;;;23.98;59.83;99299.41;6279132;20;2837872;-60
2022/08/13 06:48:09;;;;;;;;;20.00;18.33;;;;;25.55;54.91;99303.19;6287774;20;3567970;-60
2022/08/13 06:50:44;;;;;;;;;20.67;19.00;;;;;26.20;52.70;99306.53;6283809;20;3562726;-61
2022/08/13 06:53:15;;;;;;;;;18.33;18.00;;;;;26.81;50.87;99305.69;6281014;20;2837777;-61
2022/08/13 06:56:21;;;;;;;;;17.33;16.00;;;;;25.95;52.89;99306.19;6317130;20;3559651;-58
2022/08/13 06:59:04;;;;;;;;;5.00;5.00;;;;;25.92;52.82;99314.88;6280511;20;2750348;-57
2022/08/13 07:01:47;;;;;;;;;18.50;18.50;;;;;25.67;53.76;99308.09;6311370;20;2830466;-57
2022/08/13 07:04:36;;;;;;;;;16.00;14.67;;;;;25.34;54.37;99316.97;6284953;20;3538782;-57
2022/08/13 07:07:06;;;;;;;;;22.00;19.00;;;;;24.83;55.92;99308.84;6314608;20;3570300;-57
2022/08/13 07:09:35;;;;;;;;;16.33;15.00;;;;;25.31;54.59;99311.88;6284649;20;2483573;-57
2022/08/13 07:12:13;;;;;;;;;15.00;15.00;;;;;24.29;57.43;99310.97;6314587;20;3533581;-57
2022/08/13 07:14:44;;;;;;;;;19.33;17.00;;;;;25.63;54.05;99305.75;6309112;20;2832875;-57
2022/08/13 07:17:29;;;;;;;;;20.00;16.67;;;;;25.58;54.21;99316.50;6311942;20;3567156;-59
2022/08/13 07:20:07;;;;;;;;;12.00;12.00;;;;;25.60;53.85;99306.19;6279947;20;3530478;-59
2022/08/13 07:22:54;;;;;;;;;17.67;16.00;;;;;25.68;53.83;99312.56;6280243;20;2832689;-58
2022/08/13 07:25:44;;;;;;;;;16.00;16.00;;;;;25.31;54.54;99309.97;6314485;20;3555439;-58
2022/08/13 07:28:28;;;;;;;;;16.50;14.50;;;;;25.33;55.02;99307.00;6275962;20;2811787;-58
2022/08/13 07:31:31;;;;;;;;;16.00;15.00;;;;;25.55;54.43;99303.19;6286253;20;3548126;-58
2022/08/13 07:34:21;;;;;;;;;15.67;15.67;;;;;25.79;53.55;99303.75;6282536;20;3550349;-59
2022/08/13 07:36:59;;;;;;;;;18.33;16.00;;;;;25.00;55.48;99303.97;6278689;20;2835684;-59
2022/08/13 07:39:28;;;;;;;;;17.50;14.50;;;;;25.11;56.33;99295.19;6315216;20;2812750;-59
2022/08/13 07:41:58;;;;;;;;;20.00;16.00;;;;;26.35;52.94;99300.88;6282641;20;2830463;-59
2022/08/13 07:44:32;;;;;;;;;16.00;14.50;;;;;26.62;52.57;99298.22;6280469;20;2816941;-59
2022/08/13 07:47:23;;;;;;;;;17.00;17.00;;;;;26.35;52.15;99292.63;6281838;20;2826292;-59
2022/08/13 07:50:01;;;;;;;;;18.33;15.00;;;;;25.87;52.96;99294.53;6289145;20;3554514;-59
2022/08/13 07:52:31;;;;;;;;;19.00;15.50;;;;;26.77;51.31;99296.16;6283723;20;2821132;-59
2022/08/13 07:55:02;;;;;;;;;18.33;18.33;;;;;26.89;50.49;99300.00;6289811;20;3569044;-59
2022/08/13 07:57:52;;;;;;;;;14.67;14.67;;;;;26.87;51.07;99296.59;6287682;20;3532649;-59
2022/08/13 08:00:24;;;;;;;;;13.50;13.50;;;;;27.05;50.59;99297.91;6322734;20;2682630;-59
2022/08/13 08:03:02;;;;;;;;;12.67;12.67;;;;;26.55;51.06;99298.22;6324481;20;3520103;-60
2022/08/13 08:05:34;;;;;;;;;21.00;15.00;;;;;26.62;51.58;99293.59;6316497;20;3560669;-59
2022/08/13 08:08:13;;;;;;;;;15.33;15.33;;;;;26.55;50.94;99286.38;6317847;20;2818111;-59
2022/08/13 08:10:56;;;;;;;;;13.67;13.67;;;;;26.23;51.80;99292.38;6316710;20;3526276;-59
2022/08/13 08:13:27;;;;;;;;;10.00;10.00;;;;;26.23;51.44;99288.78;6290441;20;2775287;-59
2022/08/13 08:15:57;;;;;;;;;19.00;19.00;;;;;26.70;50.61;99295.31;6315606;20;2837990;-59
2022/08/13 08:18:33;;;;;;;;;17.00;16.00;;;;;26.80;49.74;99298.47;6324156;20;3555486;-59
2022/08/13 08:21:23;;;;;;;;;17.67;16.67;;;;;27.79;48.13;99294.88;6288723;20;3562776;-61
2022/08/13 08:24:14;;;;;;;;;17.67;16.67;;;;;27.20;49.39;99290.31;6289313;20;3559838;-60
2022/08/13 08:27:04;;;;;;;;;20.00;18.00;;;;;27.48;49.00;99287.28;6284994;20;3563789;-61
2022/08/13 08:29:40;;;;;;;;;17.50;17.50;;;;;27.73;48.19;99300.44;6283115;20;2835653;-61
2022/08/13 08:32:29;;;;;;;;;11.00;11.00;;;;;28.03;47.44;99298.03;6284426;20;3512831;-61
2022/08/13 08:35:05;;;;;;;;;16.50;16.50;;;;;27.34;48.77;99291.13;6313970;20;2831547;-61
2022/08/13 08:43:34;;;;;;;;;15.00;15.00;;;;;27.65;48.47;99293.22;6283758;20;2814974;-61
2022/08/13 08:46:17;;;;;;;;;17.67;15.67;;;;;28.27;46.92;99290.94;6285705;20;3569067;-60
2022/08/13 08:48:48;;;;;;;;;17.00;16.67;;;;;28.50;46.47;99295.97;6285604;20;2829616;-61
2022/08/13 08:51:25;;;;;;;;;12.50;12.50;;;;;28.04;47.20;99285.06;6314364;20;2800259;-59
2022/08/13 08:53:55;;;;;;;;;20.33;18.67;;;;;28.35;46.22;99287.91;6284698;20;2830552;-60
2022/08/13 08:56:48;;;;;;;;;16.33;16.33;;;;;27.67;47.98;99288.31;6314019;20;3563781;-60
2022/08/13 08:59:41;;;;;;;;;18.33;17.00;;;;;27.39;48.68;99285.00;6318221;20;2832541;-60
2022/08/13 09:02:24;;;;;;;;;15.33;13.00;;;;;27.63;47.89;99276.03;6310537;20;3536734;-60
2022/08/13 09:04:56;;;;;;;;;15.00;13.00;;;;;27.55;47.39;99279.03;6316214;20;2479871;-61
2022/08/13 09:07:36;;;;;;;;;19.00;17.00;;;;;27.94;48.09;99275.34;6320237;20;3571108;-60
2022/08/13 09:10:09;;;;;;;;;17.00;17.00;;;;;26.77;50.26;99263.09;6285326;20;3568035;-59
2022/08/13 09:12:44;;;;;;;;;17.50;17.00;;;;;26.97;49.62;99265.88;6282432;20;2828369;-59
2022/08/13 09:15:23;;;;;;;;;15.00;15.00;;;;;27.52;48.26;99260.16;6286465;20;3531996;-58
2022/08/13 09:17:53;;;;;;;;;17.67;16.33;;;;;27.38;47.57;99256.56;6320572;20;3555455;-59
2022/08/13 09:20:28;;;;;;;;;15.00;12.50;;;;;27.53;48.24;99257.16;6283526;20;2805511;-58
2022/08/13 09:23:14;;;;;;;;;17.33;16.33;;;;;27.84;47.07;99263.09;6286513;20;2835820;-59
2022/08/13 09:26:05;;;;;;;;;16.67;16.00;;;;;28.01;46.25;99261.53;6315299;20;2839943;-58
2022/08/13 09:28:38;;;;;;;;;15.67;15.67;;;;;28.06;46.73;99261.72;6319335;20;3547147;-59
2022/08/13 09:31:12;;;;;;;;;18.67;16.00;;;;;27.63;47.61;99255.88;6285008;20;3556500;-60
2022/08/13 09:33:53;;;;;;;;;15.33;14.33;;;;;28.18;45.66;99257.22;6283425;20;3539998;-58
2022/08/13 09:36:31;;;;;;;;;17.00;14.67;;;;;27.55;47.06;99249.53;6317658;20;3550244;-58
2022/08/13 09:39:00;;;;;;;;;19.00;19.00;;;;;28.33;46.29;99250.53;6285736;20;3570033;-60
2022/08/13 09:41:41;;;;;;;;;15.33;15.33;;;;;28.08;46.44;99250.47;6286001;20;3543986;-59
2022/08/13 09:44:09;;;;;;;;;18.33;18.33;;;;;28.05;46.63;99257.28;6289249;20;3575216;-60
2022/08/13 09:46:46;;;;;;;;;15.00;15.00;;;;;28.70;45.57;99256.31;6280996;20;2813929;-59
2022/08/13 09:49:20;;;;;;;;;17.00;16.67;;;;;27.98;46.66;99250.91;6285402;20;3559129;-60
2022/08/13 09:52:10;;;;;;;;;19.00;18.00;;;;;28.28;46.45;99259.50;6280877;20;2835761;-59
2022/08/13 09:54:49;;;;;;;;;18.33;16.33;;;;;28.01;47.04;99253.25;6316650;20;3558576;-60
2022/08/13 09:57:20;;;;;;;;;19.00;16.67;;;;;28.00;47.05;99251.56;6285872;20;3562123;-60
2022/08/13 09:59:50;;;;;;;;;15.00;15.00;;;;;27.93;46.70;99250.72;6284242;20;2812763;-60
2022/08/13 10:02:25;;;;;;;;;18.67;17.00;;;;;27.91;46.96;99242.69;6286989;20;3565876;-59
2022/08/13 10:04:55;;;;;;;;;16.50;16.50;;;;;27.68;47.35;99240.38;6281955;20;2827439;-59
2022/08/13 10:07:24;;;;;;;;;21.00;17.67;;;;;27.36;48.14;99237.47;6283004;20;3581543;-59
2022/08/13 10:09:52;;;;;;;;;18.00;16.67;;;;;28.24;46.63;99241.69;6287162;20;3559621;-59
2022/08/13 10:12:42;;;;;;;;;15.00;15.00;;;;;28.11;46.00;99250.03;6280094;20;2810800;-59
2022/08/13 10:15:14;;;;;;;;;16.33;15.33;;;;;28.05;46.37;99248.16;6283686;20;3543058;-60
2022/08/13 10:17:59;;;;;;;;;18.00;16.67;;;;;28.14;46.44;99247.66;6282526;20;3575313;-59
2022/08/13 10:20:39;;;;;;;;;14.33;13.00;;;;;27.77;46.94;99243.75;6319328;20;2793043;-59
2022/08/13 10:23:15;;;;;;;;;15.00;15.00;;;;;27.77;46.98;99241.81;6317412;20;3554415;-59
2022/08/13 10:25:46;;;;;;;;;14.00;13.00;;;;;27.48;47.03;99231.31;6282135;20;2810705;-60
2022/08/13 10:28:34;;;;;;;;;19.00;16.50;;;;;27.57;47.26;99232.78;6280786;20;2825262;-60
2022/08/13 10:31:08;;;;;;;;;17.00;17.00;;;;;28.21;46.36;99231.91;6283488;20;2831501;-58
2022/08/13 10:33:59;;;;;;;;;16.67;15.33;;;;;28.34;45.20;99235.69;6284859;20;3550355;-57
2022/08/13 10:36:33;;;;;;;;;18.67;17.33;;;;;28.23;45.65;99234.47;6281555;20;3573155;-57
2022/08/13 10:39:06;;;;;;;;;17.00;17.00;;;;;28.43;44.84;99229.69;6318077;20;3567971;-58
2022/08/13 10:41:42;;;;;;;;;20.67;15.67;;;;;28.10;45.38;99229.84;6284255;20;2835707;-58
2022/08/13 10:44:29;;;;;;;;;18.33;16.67;;;;;28.19;45.63;99233.19;6315025;20;2830463;-58
2022/08/13 10:46:59;;;;;;;;;16.00;16.00;;;;;28.38;45.57;99231.41;6312933;20;2826422;-58
2022/08/13 10:49:29;;;;;;;;;13.00;12.33;;;;;28.47;44.23;99235.63;6285162;20;2491981;-58
2022/08/13 10:52:01;;;;;;;;;15.67;15.00;;;;;28.31;43.42;99230.63;6319662;20;3545036;-57
2022/08/13 10:54:33;;;;;;;;;17.67;15.67;;;;;28.60;43.96;99226.44;6280044;20;2837746;-59
2022/08/13 10:57:06;;;;;;;;;21.00;17.67;;;;;28.32;44.90;99221.25;6310355;20;2834724;-60
2022/08/13 10:59:45;;;;;;;;;17.33;17.33;;;;;28.51;44.03;99225.81;6311165;20;2825257;-59
2022/08/13 11:02:13;;;;;;;;;16.33;15.33;;;;;28.35;43.57;99226.31;6317863;20;3560682;-59
2022/08/13 11:04:48;;;;;;;;;18.00;17.00;;;;;28.54;43.05;99224.53;6279318;20;2830498;-60
2022/08/13 11:07:21;;;;;;;;;17.67;15.33;;;;;28.30;42.86;99223.38;6280623;20;2829471;-60
2022/08/13 11:09:52;;;;;;;;;16.00;13.67;;;;;27.95;43.96;99213.56;6316042;20;3547574;-60
2022/08/13 11:12:24;;;;;;;;;19.00;19.00;;;;;28.39;43.52;99213.78;6280005;20;2832530;-60
2022/08/13 11:15:11;;;;;;;;;19.00;18.00;;;;;28.40;42.86;99213.53;6312231;20;3569062;-60
2022/08/13 11:17:50;;;;;;;;;18.67;16.67;;;;;28.45;42.93;99205.47;6278693;20;2835757;-61
2022/08/13 11:20:29;;;;;;;;;18.67;18.33;;;;;28.70;41.79;99214.84;6313618;20;2834739;-61
2022/08/13 11:22:58;;;;;;;;;15.00;15.00;;;;;28.81;41.29;99203.09;6314472;20;3535645;-60
2022/08/13 11:25:29;;;;;;;;;16.67;15.33;;;;;29.03;40.07;99196.09;6327403;20;3555591;-60
2022/08/13 11:28:17;;;;;;;;;13.50;12.50;;;;;28.63;40.71;99199.19;6289720;20;2810667;-61
2022/08/13 11:30:53;;;;;;;;;16.33;16.00;;;;;29.06;39.57;99203.97;6296541;20;3571127;-61
2022/08/13 11:33:26;;;;;;;;;15.33;15.33;;;;;28.74;40.77;99200.38;6295179;20;3542991;-61
2022/08/13 11:36:15;;;;;;;;;16.00;16.00;;;;;28.65;40.86;99193.44;6323513;20;3558592;-60
2022/08/13 11:38:44;;;;;;;;;15.00;15.00;;;;;29.13;39.48;99197.53;6293929;20;2798230;-60
2022/08/13 11:41:14;;;;;;;;;17.00;15.00;;;;;28.98;39.45;99186.78;6292548;20;2823202;-60
2022/08/13 11:43:48;;;;;;;;;14.00;14.00;;;;;28.33;40.45;99187.91;6297069;20;3529428;-59
2022/08/13 11:46:26;;;;;;;;;16.67;15.00;;;;;28.24;39.74;99190.06;6325480;20;3549644;-60
2022/08/13 11:48:55;;;;;;;;;17.00;16.00;;;;;29.24;39.31;99197.63;6287352;20;2826326;-60
2022/08/13 11:51:45;;;;;;;;;14.00;14.00;;;;;29.37;38.24;99195.81;6295781;20;3535742;-60
2022/08/13 11:54:24;;;;;;;;;13.00;13.00;;;;;29.77;37.54;99196.22;6324430;20;3536021;-60
2022/08/13 11:57:06;;;;;;;;;12.33;11.00;;;;;29.67;37.93;99187.63;6322058;20;3520036;-60
2022/08/13 11:59:37;;;;;;;;;14.00;13.67;;;;;29.61;37.07;99185.75;6295605;20;2483630;-60
2022/08/13 12:02:17;;;;;;;;;15.67;15.00;;;;;29.49;37.71;99185.66;6327994;20;3542995;-60
2022/08/13 12:04:57;;;;;;;;;13.00;13.00;;;;;29.83;36.97;99184.22;6292087;20;2810684;-60
2022/08/13 12:07:26;;;;;;;;;12.00;12.00;;;;;29.97;36.38;99187.69;6287715;20;3527406;-59
2022/08/13 12:09:57;;;;;;;;;14.67;14.67;;;;;30.04;37.43;99173.72;6294205;20;2483703;-60
2022/08/13 12:12:27;;;;;;;;;13.00;13.00;;;;;29.51;38.33;99176.06;6329132;20;3533573;-60
2022/08/13 12:14:56;;;;;;;;;15.67;14.00;;;;;29.91;38.45;99175.63;6325775;20;2483569;-60